<?xml version="1.0" encoding="UTF-8" standalone="no" ?>
<gpx xmlns="http://www.topografix.com/GPX/1/1" xmlns:xsi="http://www.w3.org/2001/XMLSchema-instance" xsi:schemaLocation="http://www.topografix.com/GPX/1/1 http://www.topografix.com/GPX/1/1/gpx.xsd" version="1.1" creator="VisuGPX - https://www.visugpx.com">
  <metadata>
    <name>Chazelles St Galmier</name>
    <desc><![CDATA[Petite balade jusqu’à St Galmier]]></desc>
  </metadata>
  <trk>
    <name><![CDATA[OR-7123140--Chazelles-sur-Lyon:Chazelles St Galmier]]></name>
    <trkseg>
      <trkpt lat="45.63751" lon="4.38782">
        <ele>612</ele>
        <time>2017-03-10T23:06:04Z</time>
      </trkpt>
      <trkpt lat="45.63666" lon="4.38823">
        <ele>612</ele>
        <time>2017-03-10T23:08:04Z</time>
      </trkpt>
      <trkpt lat="45.63606" lon="4.38556">
        <ele>606</ele>
        <time>2017-03-10T23:10:04Z</time>
      </trkpt>
      <trkpt lat="45.63555" lon="4.3826">
        <ele>599</ele>
        <time>2017-03-10T23:12:04Z</time>
      </trkpt>
      <trkpt lat="45.6351" lon="4.37741">
        <ele>591</ele>
        <time>2017-03-10T23:14:04Z</time>
      </trkpt>
      <trkpt lat="45.6346" lon="4.37761">
        <ele>588</ele>
        <time>2017-03-10T23:16:04Z</time>
      </trkpt>
      <trkpt lat="45.63441" lon="4.37648">
        <ele>585</ele>
        <time>2017-03-10T23:18:04Z</time>
      </trkpt>
      <trkpt lat="45.63379" lon="4.3764">
        <ele>579</ele>
        <time>2017-03-10T23:20:04Z</time>
      </trkpt>
      <trkpt lat="45.63354" lon="4.37565">
        <ele>578</ele>
        <time>2017-03-10T23:22:04Z</time>
      </trkpt>
      <trkpt lat="45.63358" lon="4.37389">
        <ele>576</ele>
        <time>2017-03-10T23:24:04Z</time>
      </trkpt>
      <trkpt lat="45.63054" lon="4.37329">
        <ele>554</ele>
        <time>2017-03-10T23:26:04Z</time>
      </trkpt>
      <trkpt lat="45.62673" lon="4.37175">
        <ele>525</ele>
        <time>2017-03-10T23:28:04Z</time>
      </trkpt>
      <trkpt lat="45.62391" lon="4.37188">
        <ele>510</ele>
        <time>2017-03-10T23:30:04Z</time>
      </trkpt>
      <trkpt lat="45.62289" lon="4.37149">
        <ele>500</ele>
        <time>2017-03-10T23:32:04Z</time>
      </trkpt>
      <trkpt lat="45.62244" lon="4.36763">
        <ele>492</ele>
        <time>2017-03-10T23:34:04Z</time>
      </trkpt>
      <trkpt lat="45.61974" lon="4.3684">
        <ele>481</ele>
        <time>2017-03-10T23:36:04Z</time>
      </trkpt>
      <trkpt lat="45.6177" lon="4.36973">
        <ele>466</ele>
        <time>2017-03-10T23:38:04Z</time>
      </trkpt>
      <trkpt lat="45.61674" lon="4.36956">
        <ele>464</ele>
        <time>2017-03-10T23:40:04Z</time>
      </trkpt>
      <trkpt lat="45.61689" lon="4.3687">
        <ele>463</ele>
        <time>2017-03-10T23:42:04Z</time>
      </trkpt>
      <trkpt lat="45.61599" lon="4.36793">
        <ele>476</ele>
        <time>2017-03-10T23:44:04Z</time>
      </trkpt>
      <trkpt lat="45.61395" lon="4.36724">
        <ele>501</ele>
        <time>2017-03-10T23:46:04Z</time>
      </trkpt>
      <trkpt lat="45.61355" lon="4.36531">
        <ele>516</ele>
        <time>2017-03-10T23:48:04Z</time>
      </trkpt>
      <trkpt lat="45.61271" lon="4.36638">
        <ele>495</ele>
        <time>2017-03-10T23:50:04Z</time>
      </trkpt>
      <trkpt lat="45.6125" lon="4.36806">
        <ele>485</ele>
        <time>2017-03-10T23:52:04Z</time>
      </trkpt>
      <trkpt lat="45.61202" lon="4.36943">
        <ele>472</ele>
        <time>2017-03-10T23:54:04Z</time>
      </trkpt>
      <trkpt lat="45.61241" lon="4.36973">
        <ele>474</ele>
        <time>2017-03-10T23:56:04Z</time>
      </trkpt>
      <trkpt lat="45.61196" lon="4.37046">
        <ele>456</ele>
        <time>2017-03-10T23:58:04Z</time>
      </trkpt>
      <trkpt lat="45.61144" lon="4.37033">
        <ele>451</ele>
        <time>2017-03-11T00:00:04Z</time>
      </trkpt>
      <trkpt lat="45.6115" lon="4.37082">
        <ele>444</ele>
        <time>2017-03-11T00:02:04Z</time>
      </trkpt>
      <trkpt lat="45.61102" lon="4.37089">
        <ele>433</ele>
        <time>2017-03-11T00:04:04Z</time>
      </trkpt>
      <trkpt lat="45.61093" lon="4.36964">
        <ele>440</ele>
        <time>2017-03-11T00:06:04Z</time>
      </trkpt>
      <trkpt lat="45.61073" lon="4.36855">
        <ele>441</ele>
        <time>2017-03-11T00:08:04Z</time>
      </trkpt>
      <trkpt lat="45.61117" lon="4.367">
        <ele>444</ele>
        <time>2017-03-11T00:10:04Z</time>
      </trkpt>
      <trkpt lat="45.61156" lon="4.35964">
        <ele>435</ele>
        <time>2017-03-11T00:12:04Z</time>
      </trkpt>
      <trkpt lat="45.61138" lon="4.35823">
        <ele>439</ele>
        <time>2017-03-11T00:14:04Z</time>
      </trkpt>
      <trkpt lat="45.61172" lon="4.35778">
        <ele>450</ele>
        <time>2017-03-11T00:16:04Z</time>
      </trkpt>
      <trkpt lat="45.61108" lon="4.35673">
        <ele>457</ele>
        <time>2017-03-11T00:18:04Z</time>
      </trkpt>
      <trkpt lat="45.61025" lon="4.35647">
        <ele>447</ele>
        <time>2017-03-11T00:20:04Z</time>
      </trkpt>
      <trkpt lat="45.60956" lon="4.35673">
        <ele>436</ele>
        <time>2017-03-11T00:22:04Z</time>
      </trkpt>
      <trkpt lat="45.6093" lon="4.35746">
        <ele>429</ele>
        <time>2017-03-11T00:24:04Z</time>
      </trkpt>
      <trkpt lat="45.60873" lon="4.35672">
        <ele>423</ele>
        <time>2017-03-11T00:26:04Z</time>
      </trkpt>
      <trkpt lat="45.60856" lon="4.35482">
        <ele>432</ele>
        <time>2017-03-11T00:28:04Z</time>
      </trkpt>
      <trkpt lat="45.60852" lon="4.35409">
        <ele>433</ele>
        <time>2017-03-11T00:30:04Z</time>
      </trkpt>
      <trkpt lat="45.60847" lon="4.35338">
        <ele>430</ele>
        <time>2017-03-11T00:32:04Z</time>
      </trkpt>
      <trkpt lat="45.6082" lon="4.35205">
        <ele>421</ele>
        <time>2017-03-11T00:34:04Z</time>
      </trkpt>
      <trkpt lat="45.6077" lon="4.35173">
        <ele>420</ele>
        <time>2017-03-11T00:36:04Z</time>
      </trkpt>
      <trkpt lat="45.60627" lon="4.35522">
        <ele>462</ele>
        <time>2017-03-11T00:38:04Z</time>
      </trkpt>
      <trkpt lat="45.60462" lon="4.35316">
        <ele>463</ele>
        <time>2017-03-11T00:40:04Z</time>
      </trkpt>
      <trkpt lat="45.60389" lon="4.35308">
        <ele>462</ele>
        <time>2017-03-11T00:42:04Z</time>
      </trkpt>
      <trkpt lat="45.60417" lon="4.3501">
        <ele>432</ele>
        <time>2017-03-11T00:44:04Z</time>
      </trkpt>
      <trkpt lat="45.60327" lon="4.34941">
        <ele>417</ele>
        <time>2017-03-11T00:46:04Z</time>
      </trkpt>
      <trkpt lat="45.59911" lon="4.34789">
        <ele>403</ele>
        <time>2017-03-11T00:48:04Z</time>
      </trkpt>
      <trkpt lat="45.59874" lon="4.34694">
        <ele>401</ele>
        <time>2017-03-11T00:50:04Z</time>
      </trkpt>
      <trkpt lat="45.59805" lon="4.34622">
        <ele>402</ele>
        <time>2017-03-11T00:52:04Z</time>
      </trkpt>
      <trkpt lat="45.59734" lon="4.34488">
        <ele>400</ele>
        <time>2017-03-11T00:54:04Z</time>
      </trkpt>
      <trkpt lat="45.59694" lon="4.34345">
        <ele>400</ele>
        <time>2017-03-11T00:56:04Z</time>
      </trkpt>
      <trkpt lat="45.59646" lon="4.343">
        <ele>411</ele>
        <time>2017-03-11T00:58:04Z</time>
      </trkpt>
      <trkpt lat="45.59593" lon="4.34328">
        <ele>413</ele>
        <time>2017-03-11T01:00:04Z</time>
      </trkpt>
      <trkpt lat="45.59518" lon="4.34407">
        <ele>407</ele>
        <time>2017-03-11T01:02:04Z</time>
      </trkpt>
      <trkpt lat="45.59482" lon="4.34378">
        <ele>409</ele>
        <time>2017-03-11T01:04:04Z</time>
      </trkpt>
      <trkpt lat="45.59428" lon="4.34189">
        <ele>403</ele>
        <time>2017-03-11T01:06:04Z</time>
      </trkpt>
      <trkpt lat="45.59435" lon="4.34104">
        <ele>405</ele>
        <time>2017-03-11T01:08:04Z</time>
      </trkpt>
      <trkpt lat="45.59221" lon="4.33443">
        <ele>407</ele>
        <time>2017-03-11T01:10:04Z</time>
      </trkpt>
      <trkpt lat="45.59413" lon="4.33591">
        <ele>437</ele>
        <time>2017-03-11T01:12:04Z</time>
      </trkpt>
      <trkpt lat="45.59545" lon="4.33791">
        <ele>453</ele>
        <time>2017-03-11T01:14:04Z</time>
      </trkpt>
      <trkpt lat="45.59434" lon="4.33566">
        <ele>445</ele>
        <time>2017-03-11T01:16:04Z</time>
      </trkpt>
      <trkpt lat="45.59236" lon="4.33414">
        <ele>415</ele>
        <time>2017-03-11T01:18:04Z</time>
      </trkpt>
      <trkpt lat="45.59141" lon="4.33326">
        <ele>406</ele>
        <time>2017-03-11T01:20:04Z</time>
      </trkpt>
      <trkpt lat="45.59063" lon="4.33318">
        <ele>401</ele>
        <time>2017-03-11T01:22:04Z</time>
      </trkpt>
      <trkpt lat="45.59003" lon="4.33206">
        <ele>408</ele>
        <time>2017-03-11T01:24:04Z</time>
      </trkpt>
      <trkpt lat="45.58933" lon="4.32923">
        <ele>399</ele>
        <time>2017-03-11T01:26:04Z</time>
      </trkpt>
      <trkpt lat="45.58733" lon="4.32597">
        <ele>384</ele>
        <time>2017-03-11T01:28:04Z</time>
      </trkpt>
      <trkpt lat="45.58622" lon="4.3279">
        <ele>399</ele>
        <time>2017-03-11T01:30:04Z</time>
      </trkpt>
      <trkpt lat="45.58649" lon="4.32965">
        <ele>398</ele>
        <time>2017-03-11T01:32:04Z</time>
      </trkpt>
      <trkpt lat="45.58755" lon="4.33275">
        <ele>397</ele>
        <time>2017-03-11T01:34:04Z</time>
      </trkpt>
      <trkpt lat="45.58739" lon="4.33437">
        <ele>406</ele>
        <time>2017-03-11T01:36:04Z</time>
      </trkpt>
      <trkpt lat="45.58868" lon="4.33571">
        <ele>404</ele>
        <time>2017-03-11T01:38:04Z</time>
      </trkpt>
      <trkpt lat="45.589" lon="4.33697">
        <ele>403</ele>
        <time>2017-03-11T01:40:04Z</time>
      </trkpt>
      <trkpt lat="45.58963" lon="4.33805">
        <ele>406</ele>
        <time>2017-03-11T01:42:04Z</time>
      </trkpt>
      <trkpt lat="45.58964" lon="4.33919">
        <ele>429</ele>
        <time>2017-03-11T01:44:04Z</time>
      </trkpt>
      <trkpt lat="45.58873" lon="4.34002">
        <ele>448</ele>
        <time>2017-03-11T01:46:04Z</time>
      </trkpt>
      <trkpt lat="45.58849" lon="4.34169">
        <ele>465</ele>
        <time>2017-03-11T01:48:04Z</time>
      </trkpt>
      <trkpt lat="45.58752" lon="4.34392">
        <ele>483</ele>
        <time>2017-03-11T01:50:04Z</time>
      </trkpt>
      <trkpt lat="45.58685" lon="4.3458">
        <ele>496</ele>
        <time>2017-03-11T01:52:04Z</time>
      </trkpt>
      <trkpt lat="45.58577" lon="4.34794">
        <ele>514</ele>
        <time>2017-03-11T01:54:04Z</time>
      </trkpt>
      <trkpt lat="45.58484" lon="4.35245">
        <ele>534</ele>
        <time>2017-03-11T01:56:04Z</time>
      </trkpt>
      <trkpt lat="45.58713" lon="4.3553">
        <ele>534</ele>
        <time>2017-03-11T01:58:04Z</time>
      </trkpt>
      <trkpt lat="45.58743" lon="4.35642">
        <ele>531</ele>
        <time>2017-03-11T02:00:04Z</time>
      </trkpt>
      <trkpt lat="45.58728" lon="4.3572">
        <ele>532</ele>
        <time>2017-03-11T02:02:04Z</time>
      </trkpt>
      <trkpt lat="45.58776" lon="4.35789">
        <ele>534</ele>
        <time>2017-03-11T02:04:04Z</time>
      </trkpt>
      <trkpt lat="45.58834" lon="4.35938">
        <ele>544</ele>
        <time>2017-03-11T02:06:04Z</time>
      </trkpt>
      <trkpt lat="45.58945" lon="4.36045">
        <ele>536</ele>
        <time>2017-03-11T02:08:04Z</time>
      </trkpt>
      <trkpt lat="45.59081" lon="4.36128">
        <ele>520</ele>
        <time>2017-03-11T02:10:04Z</time>
      </trkpt>
      <trkpt lat="45.59137" lon="4.3607">
        <ele>519</ele>
        <time>2017-03-11T02:12:04Z</time>
      </trkpt>
      <trkpt lat="45.5913" lon="4.35987">
        <ele>522</ele>
        <time>2017-03-11T02:14:04Z</time>
      </trkpt>
      <trkpt lat="45.59199" lon="4.35719">
        <ele>523</ele>
        <time>2017-03-11T02:16:04Z</time>
      </trkpt>
      <trkpt lat="45.59231" lon="4.3568">
        <ele>522</ele>
        <time>2017-03-11T02:18:04Z</time>
      </trkpt>
      <trkpt lat="45.59268" lon="4.35665">
        <ele>519</ele>
        <time>2017-03-11T02:20:04Z</time>
      </trkpt>
      <trkpt lat="45.59389" lon="4.3539">
        <ele>505</ele>
        <time>2017-03-11T02:22:04Z</time>
      </trkpt>
      <trkpt lat="45.59376" lon="4.3534">
        <ele>504</ele>
        <time>2017-03-11T02:24:04Z</time>
      </trkpt>
      <trkpt lat="45.59432" lon="4.35226">
        <ele>499</ele>
        <time>2017-03-11T02:26:04Z</time>
      </trkpt>
      <trkpt lat="45.59662" lon="4.34921">
        <ele>473</ele>
        <time>2017-03-11T02:28:04Z</time>
      </trkpt>
      <trkpt lat="45.5975" lon="4.34903">
        <ele>453</ele>
        <time>2017-03-11T02:30:04Z</time>
      </trkpt>
      <trkpt lat="45.59754" lon="4.34853">
        <ele>446</ele>
        <time>2017-03-11T02:32:04Z</time>
      </trkpt>
      <trkpt lat="45.59702" lon="4.34813">
        <ele>455</ele>
        <time>2017-03-11T02:34:04Z</time>
      </trkpt>
      <trkpt lat="45.59731" lon="4.34776">
        <ele>439</ele>
        <time>2017-03-11T02:36:04Z</time>
      </trkpt>
      <trkpt lat="45.59869" lon="4.34819">
        <ele>413</ele>
        <time>2017-03-11T02:38:04Z</time>
      </trkpt>
      <trkpt lat="45.59907" lon="4.34813">
        <ele>406</ele>
        <time>2017-03-11T02:40:04Z</time>
      </trkpt>
      <trkpt lat="45.60328" lon="4.34942">
        <ele>417</ele>
        <time>2017-03-11T02:42:04Z</time>
      </trkpt>
      <trkpt lat="45.60418" lon="4.35011">
        <ele>432</ele>
        <time>2017-03-11T02:44:04Z</time>
      </trkpt>
      <trkpt lat="45.6039" lon="4.35309">
        <ele>462</ele>
        <time>2017-03-11T02:46:04Z</time>
      </trkpt>
      <trkpt lat="45.60463" lon="4.35317">
        <ele>463</ele>
        <time>2017-03-11T02:48:04Z</time>
      </trkpt>
      <trkpt lat="45.60628" lon="4.35523">
        <ele>462</ele>
        <time>2017-03-11T02:50:04Z</time>
      </trkpt>
      <trkpt lat="45.60738" lon="4.35189">
        <ele>421</ele>
        <time>2017-03-11T02:52:04Z</time>
      </trkpt>
      <trkpt lat="45.60615" lon="4.35291">
        <ele>424</ele>
        <time>2017-03-11T02:54:04Z</time>
      </trkpt>
      <trkpt lat="45.60637" lon="4.35227">
        <ele>415</ele>
        <time>2017-03-11T02:56:04Z</time>
      </trkpt>
      <trkpt lat="45.60603" lon="4.35114">
        <ele>416</ele>
        <time>2017-03-11T02:58:04Z</time>
      </trkpt>
      <trkpt lat="45.60629" lon="4.35112">
        <ele>416</ele>
        <time>2017-03-11T03:00:04Z</time>
      </trkpt>
      <trkpt lat="45.60717" lon="4.34914">
        <ele>458</ele>
        <time>2017-03-11T03:02:04Z</time>
      </trkpt>
      <trkpt lat="45.60744" lon="4.34734">
        <ele>477</ele>
        <time>2017-03-11T03:04:04Z</time>
      </trkpt>
      <trkpt lat="45.60842" lon="4.34852">
        <ele>493</ele>
        <time>2017-03-11T03:06:04Z</time>
      </trkpt>
      <trkpt lat="45.61003" lon="4.34805">
        <ele>513</ele>
        <time>2017-03-11T03:08:04Z</time>
      </trkpt>
      <trkpt lat="45.61056" lon="4.35118">
        <ele>489</ele>
        <time>2017-03-11T03:10:04Z</time>
      </trkpt>
      <trkpt lat="45.60986" lon="4.35356">
        <ele>469</ele>
        <time>2017-03-11T03:12:04Z</time>
      </trkpt>
      <trkpt lat="45.60936" lon="4.35464">
        <ele>445</ele>
        <time>2017-03-11T03:14:04Z</time>
      </trkpt>
      <trkpt lat="45.61052" lon="4.35528">
        <ele>452</ele>
        <time>2017-03-11T03:16:04Z</time>
      </trkpt>
      <trkpt lat="45.61026" lon="4.35648">
        <ele>448</ele>
        <time>2017-03-11T03:18:04Z</time>
      </trkpt>
      <trkpt lat="45.61109" lon="4.35674">
        <ele>457</ele>
        <time>2017-03-11T03:20:04Z</time>
      </trkpt>
      <trkpt lat="45.61173" lon="4.35779">
        <ele>450</ele>
        <time>2017-03-11T03:22:04Z</time>
      </trkpt>
      <trkpt lat="45.61139" lon="4.35824">
        <ele>439</ele>
        <time>2017-03-11T03:24:04Z</time>
      </trkpt>
      <trkpt lat="45.61157" lon="4.35965">
        <ele>435</ele>
        <time>2017-03-11T03:26:04Z</time>
      </trkpt>
      <trkpt lat="45.61118" lon="4.36701">
        <ele>444</ele>
        <time>2017-03-11T03:28:04Z</time>
      </trkpt>
      <trkpt lat="45.61074" lon="4.36856">
        <ele>440</ele>
        <time>2017-03-11T03:30:04Z</time>
      </trkpt>
      <trkpt lat="45.61094" lon="4.36965">
        <ele>441</ele>
        <time>2017-03-11T03:32:04Z</time>
      </trkpt>
      <trkpt lat="45.61103" lon="4.3709">
        <ele>433</ele>
        <time>2017-03-11T03:34:04Z</time>
      </trkpt>
      <trkpt lat="45.61151" lon="4.37083">
        <ele>444</ele>
        <time>2017-03-11T03:36:04Z</time>
      </trkpt>
      <trkpt lat="45.61145" lon="4.37034">
        <ele>451</ele>
        <time>2017-03-11T03:38:04Z</time>
      </trkpt>
      <trkpt lat="45.61197" lon="4.37047">
        <ele>456</ele>
        <time>2017-03-11T03:40:04Z</time>
      </trkpt>
      <trkpt lat="45.61242" lon="4.36974">
        <ele>474</ele>
        <time>2017-03-11T03:42:04Z</time>
      </trkpt>
      <trkpt lat="45.61203" lon="4.36944">
        <ele>472</ele>
        <time>2017-03-11T03:44:04Z</time>
      </trkpt>
      <trkpt lat="45.61251" lon="4.36807">
        <ele>485</ele>
        <time>2017-03-11T03:46:04Z</time>
      </trkpt>
      <trkpt lat="45.61272" lon="4.36639">
        <ele>495</ele>
        <time>2017-03-11T03:48:04Z</time>
      </trkpt>
      <trkpt lat="45.61356" lon="4.36532">
        <ele>516</ele>
        <time>2017-03-11T03:50:04Z</time>
      </trkpt>
      <trkpt lat="45.61396" lon="4.36725">
        <ele>501</ele>
        <time>2017-03-11T03:52:04Z</time>
      </trkpt>
      <trkpt lat="45.616" lon="4.36794">
        <ele>476</ele>
        <time>2017-03-11T03:54:04Z</time>
      </trkpt>
      <trkpt lat="45.6169" lon="4.36871">
        <ele>463</ele>
        <time>2017-03-11T03:56:04Z</time>
      </trkpt>
      <trkpt lat="45.61675" lon="4.36957">
        <ele>464</ele>
        <time>2017-03-11T03:58:04Z</time>
      </trkpt>
      <trkpt lat="45.61771" lon="4.36974">
        <ele>466</ele>
        <time>2017-03-11T04:00:04Z</time>
      </trkpt>
      <trkpt lat="45.61975" lon="4.36841">
        <ele>481</ele>
        <time>2017-03-11T04:02:04Z</time>
      </trkpt>
      <trkpt lat="45.62245" lon="4.36764">
        <ele>492</ele>
        <time>2017-03-11T04:04:04Z</time>
      </trkpt>
      <trkpt lat="45.6229" lon="4.3715">
        <ele>500</ele>
        <time>2017-03-11T04:06:04Z</time>
      </trkpt>
      <trkpt lat="45.62392" lon="4.37189">
        <ele>510</ele>
        <time>2017-03-11T04:08:04Z</time>
      </trkpt>
      <trkpt lat="45.62674" lon="4.37176">
        <ele>525</ele>
        <time>2017-03-11T04:10:04Z</time>
      </trkpt>
      <trkpt lat="45.63055" lon="4.3733">
        <ele>554</ele>
        <time>2017-03-11T04:12:04Z</time>
      </trkpt>
      <trkpt lat="45.63359" lon="4.3739">
        <ele>576</ele>
        <time>2017-03-11T04:14:04Z</time>
      </trkpt>
      <trkpt lat="45.63355" lon="4.37566">
        <ele>578</ele>
        <time>2017-03-11T04:16:04Z</time>
      </trkpt>
      <trkpt lat="45.6338" lon="4.37641">
        <ele>579</ele>
        <time>2017-03-11T04:18:04Z</time>
      </trkpt>
      <trkpt lat="45.63442" lon="4.37649">
        <ele>585</ele>
        <time>2017-03-11T04:20:04Z</time>
      </trkpt>
      <trkpt lat="45.63461" lon="4.37762">
        <ele>588</ele>
        <time>2017-03-11T04:22:04Z</time>
      </trkpt>
      <trkpt lat="45.63511" lon="4.37742">
        <ele>591</ele>
        <time>2017-03-11T04:24:04Z</time>
      </trkpt>
      <trkpt lat="45.63556" lon="4.38261">
        <ele>599</ele>
        <time>2017-03-11T04:26:04Z</time>
      </trkpt>
      <trkpt lat="45.63607" lon="4.38557">
        <ele>606</ele>
        <time>2017-03-11T04:28:04Z</time>
      </trkpt>
      <trkpt lat="45.63667" lon="4.38824">
        <ele>612</ele>
        <time>2017-03-11T04:30:04Z</time>
      </trkpt>
      <trkpt lat="45.63752" lon="4.38783">
        <ele>612</ele>
        <time>2017-03-11T04:32:04Z</time>
      </trkpt>
    </trkseg>
  </trk>
</gpx>